sensor_id;sensor_type;location;lat;lon;timestamp;pressure;altitude;pressure_sealevel;temperature;humidity
28701;BME280;15877;52.344;16.790;2022-10-18T00:00:43;101484.83;;;17.18;72.17
28701;BME280;15877;52.344;16.790;2022-10-18T00:03:36;101484.16;;;17.08;73.08
28701;BME280;15877;52.344;16.790;2022-10-18T00:06:09;101484.65;;;17.09;72.82
28701;BME280;15877;52.344;16.790;2022-10-18T00:08:41;101488.43;;;17.10;72.43
28701;BME280;15877;52.344;16.790;2022-10-18T00:11:13;101488.45;;;17.05;72.87
28701;BME280;15877;52.344;16.790;2022-10-18T00:13:45;101490.35;;;17.02;73.61
28701;BME280;15877;52.344;16.790;2022-10-18T00:16:18;101492.56;;;17.00;74.14
28701;BME280;15877;52.344;16.790;2022-10-18T00:18:49;101493.85;;;17.01;73.89
28701;BME280;15877;52.344;16.790;2022-10-18T00:21:23;101496.23;;;16.98;73.61
28701;BME280;15877;52.344;16.790;2022-10-18T00:23:55;101495.11;;;16.98;73.92
28701;BME280;15877;52.344;16.790;2022-10-18T00:26:28;101481.99;;;16.88;73.94
28701;BME280;15877;52.344;16.790;2022-10-18T00:29:03;101495.15;;;16.95;73.63
28701;BME280;15877;52.344;16.790;2022-10-18T00:31:36;101496.11;;;16.89;73.80
28701;BME280;15877;52.344;16.790;2022-10-18T00:34:12;101496.83;;;16.88;73.75
28701;BME280;15877;52.344;16.790;2022-10-18T00:36:45;101497.83;;;16.86;74.01
28701;BME280;15877;52.344;16.790;2022-10-18T00:39:19;101493.89;;;16.84;73.64
28701;BME280;15877;52.344;16.790;2022-10-18T00:41:51;101497.02;;;16.79;73.60
28701;BME280;15877;52.344;16.790;2022-10-18T00:45:00;101496.52;;;16.77;73.68
28701;BME280;15877;52.344;16.790;2022-10-18T00:47:33;101494.71;;;16.69;73.75
28701;BME280;15877;52.344;16.790;2022-10-18T00:50:06;101494.13;;;16.67;73.37
28701;BME280;15877;52.344;16.790;2022-10-18T00:52:40;101498.80;;;16.63;73.41
28701;BME280;15877;52.344;16.790;2022-10-18T00:55:13;101499.46;;;16.59;73.73
28701;BME280;15877;52.344;16.790;2022-10-18T00:57:46;101497.38;;;16.59;73.60
28701;BME280;15877;52.344;16.790;2022-10-18T01:00:20;101491.59;;;16.57;73.05
28701;BME280;15877;52.344;16.790;2022-10-18T01:02:53;101491.98;;;16.56;73.37
28701;BME280;15877;52.344;16.790;2022-10-18T01:05:25;101489.24;;;16.56;73.09
28701;BME280;15877;52.344;16.790;2022-10-18T01:08:10;101491.40;;;16.56;73.01
28701;BME280;15877;52.344;16.790;2022-10-18T01:10:48;101486.73;;;16.54;72.93
28701;BME280;15877;52.344;16.790;2022-10-18T01:13:34;101493.75;;;16.52;72.66
28701;BME280;15877;52.344;16.790;2022-10-18T01:16:15;101490.93;;;16.47;72.25
28701;BME280;15877;52.344;16.790;2022-10-18T01:18:54;101491.59;;;16.44;72.75
28701;BME280;15877;52.344;16.790;2022-10-18T01:21:36;101491.61;;;16.39;72.83
28701;BME280;15877;52.344;16.790;2022-10-18T01:24:33;101491.47;;;16.36;73.71
28701;BME280;15877;52.344;16.790;2022-10-18T01:30:33;101493.23;;;16.32;74.49
28701;BME280;15877;52.344;16.790;2022-10-18T01:33:13;101484.10;;;16.26;75.45
28701;BME280;15877;52.344;16.790;2022-10-18T01:35:52;101487.58;;;16.33;75.78
28701;BME280;15877;52.344;16.790;2022-10-18T01:38:29;101483.08;;;16.32;75.18
28701;BME280;15877;52.344;16.790;2022-10-18T01:41:00;101482.95;;;16.36;75.20
28701;BME280;15877;52.344;16.790;2022-10-18T01:43:34;101482.40;;;16.35;75.19
28701;BME280;15877;52.344;16.790;2022-10-18T01:46:08;101482.47;;;16.34;74.91
28701;BME280;15877;52.344;16.790;2022-10-18T01:48:42;101481.70;;;16.32;75.04
28701;BME280;15877;52.344;16.790;2022-10-18T01:51:16;101482.14;;;16.33;75.16
28701;BME280;15877;52.344;16.790;2022-10-18T01:53:50;101485.91;;;16.34;74.37
28701;BME280;15877;52.344;16.790;2022-10-18T01:56:28;101484.69;;;16.33;73.89
28701;BME280;15877;52.344;16.790;2022-10-18T01:59:26;101478.71;;;16.30;73.91
28701;BME280;15877;52.344;16.790;2022-10-18T02:02:07;101473.27;;;16.24;75.37
28701;BME280;15877;52.344;16.790;2022-10-18T02:04:45;101479.06;;;16.27;74.84
28701;BME280;15877;52.344;16.790;2022-10-18T02:07:28;101482.36;;;16.27;74.34
28701;BME280;15877;52.344;16.790;2022-10-18T02:10:07;101482.96;;;16.25;74.05
28701;BME280;15877;52.344;16.790;2022-10-18T02:12:43;101483.58;;;16.23;74.13
28701;BME280;15877;52.344;16.790;2022-10-18T02:15:19;101484.00;;;16.24;73.81
28701;BME280;15877;52.344;16.790;2022-10-18T02:17:52;101482.65;;;16.20;73.85
28701;BME280;15877;52.344;16.790;2022-10-18T02:20:26;101479.63;;;16.21;73.25
28701;BME280;15877;52.344;16.790;2022-10-18T02:23:00;101474.85;;;16.18;73.38
28701;BME280;15877;52.344;16.790;2022-10-18T02:25:35;101474.38;;;16.18;73.09
28701;BME280;15877;52.344;16.790;2022-10-18T02:28:07;101474.20;;;16.14;73.74
28701;BME280;15877;52.344;16.790;2022-10-18T02:30:43;101475.63;;;16.07;75.03
28701;BME280;15877;52.344;16.790;2022-10-18T02:33:20;101479.66;;;16.09;74.67
28701;BME280;15877;52.344;16.790;2022-10-18T02:36:00;101474.85;;;15.99;75.54
28701;BME280;15877;52.344;16.790;2022-10-18T02:38:34;101477.02;;;16.04;75.57
28701;BME280;15877;52.344;16.790;2022-10-18T02:41:08;101463.65;;;15.99;75.15
28701;BME280;15877;52.344;16.790;2022-10-18T02:43:40;101477.83;;;16.09;74.45
28701;BME280;15877;52.344;16.790;2022-10-18T02:46:12;101478.96;;;16.11;74.31
28701;BME280;15877;52.344;16.790;2022-10-18T02:48:47;101486.50;;;16.11;74.10
28701;BME280;15877;52.344;16.790;2022-10-18T02:51:19;101488.08;;;16.09;73.72
28701;BME280;15877;52.344;16.790;2022-10-18T02:53:51;101489.49;;;16.08;73.49
28701;BME280;15877;52.344;16.790;2022-10-18T02:56:23;101493.87;;;16.06;73.77
28701;BME280;15877;52.344;16.790;2022-10-18T02:58:55;101496.91;;;16.06;73.83
28701;BME280;15877;52.344;16.790;2022-10-18T03:01:27;101500.52;;;16.07;73.87
28701;BME280;15877;52.344;16.790;2022-10-18T03:03:59;101498.20;;;16.06;73.81
28701;BME280;15877;52.344;16.790;2022-10-18T03:06:32;101494.77;;;16.03;73.69
28701;BME280;15877;52.344;16.790;2022-10-18T03:09:05;101494.98;;;16.00;73.46
28701;BME280;15877;52.344;16.790;2022-10-18T03:11:37;101495.29;;;15.99;73.49
28701;BME280;15877;52.344;16.790;2022-10-18T03:14:09;101490.45;;;15.98;73.17
28701;BME280;15877;52.344;16.790;2022-10-18T03:16:41;101487.61;;;15.96;73.34
28701;BME280;15877;52.344;16.790;2022-10-18T03:19:14;101490.98;;;15.96;73.27
28701;BME280;15877;52.344;16.790;2022-10-18T03:21:46;101495.63;;;15.92;73.89
28701;BME280;15877;52.344;16.790;2022-10-18T03:24:18;101502.06;;;15.89;73.34
28701;BME280;15877;52.344;16.790;2022-10-18T03:26:50;101505.74;;;15.88;73.09
28701;BME280;15877;52.344;16.790;2022-10-18T03:29:21;101499.31;;;15.87;73.19
28701;BME280;15877;52.344;16.790;2022-10-18T03:31:53;101504.59;;;15.86;72.97
28701;BME280;15877;52.344;16.790;2022-10-18T03:34:25;101502.73;;;15.85;73.08
28701;BME280;15877;52.344;16.790;2022-10-18T03:36:57;101499.11;;;15.85;72.88
28701;BME280;15877;52.344;16.790;2022-10-18T03:39:35;101497.52;;;15.85;72.86
28701;BME280;15877;52.344;16.790;2022-10-18T03:42:07;101499.91;;;15.84;73.71
28701;BME280;15877;52.344;16.790;2022-10-18T03:44:39;101505.92;;;15.80;74.13
28701;BME280;15877;52.344;16.790;2022-10-18T03:47:11;101514.82;;;15.72;75.15
28701;BME280;15877;52.344;16.790;2022-10-18T03:49:43;101510.41;;;15.64;75.52
28701;BME280;15877;52.344;16.790;2022-10-18T03:52:15;101518.68;;;15.73;75.86
28701;BME280;15877;52.344;16.790;2022-10-18T03:54:47;101522.93;;;15.74;76.27
28701;BME280;15877;52.344;16.790;2022-10-18T03:57:20;101519.52;;;15.71;76.31
28701;BME280;15877;52.344;16.790;2022-10-18T03:59:52;101520.34;;;15.67;76.58
28701;BME280;15877;52.344;16.790;2022-10-18T04:02:23;101520.64;;;15.71;76.49
28701;BME280;15877;52.344;16.790;2022-10-18T04:04:55;101518.21;;;15.69;76.69
28701;BME280;15877;52.344;16.790;2022-10-18T04:07:28;101510.98;;;15.67;76.55
28701;BME280;15877;52.344;16.790;2022-10-18T04:10:00;101508.60;;;15.65;76.25
28701;BME280;15877;52.344;16.790;2022-10-18T04:12:33;101512.02;;;15.47;77.09
28701;BME280;15877;52.344;16.790;2022-10-18T04:15:06;101519.80;;;15.56;77.42
28701;BME280;15877;52.344;16.790;2022-10-18T04:17:38;101522.78;;;15.61;77.41
28701;BME280;15877;52.344;16.790;2022-10-18T04:20:12;101524.30;;;15.54;78.08
28701;BME280;15877;52.344;16.790;2022-10-18T04:22:44;101520.05;;;15.56;77.92
28701;BME280;15877;52.344;16.790;2022-10-18T04:25:16;101514.95;;;15.61;77.66
28701;BME280;15877;52.344;16.790;2022-10-18T04:27:48;101514.72;;;15.66;77.34
28701;BME280;15877;52.344;16.790;2022-10-18T04:30:20;101511.98;;;15.70;77.14
28701;BME280;15877;52.344;16.790;2022-10-18T04:32:52;101504.85;;;15.65;77.48
28701;BME280;15877;52.344;16.790;2022-10-18T04:35:24;101504.69;;;15.70;77.55
28701;BME280;15877;52.344;16.790;2022-10-18T04:37:57;101506.36;;;15.78;77.01
28701;BME280;15877;52.344;16.790;2022-10-18T04:40:30;101506.04;;;15.65;78.00
28701;BME280;15877;52.344;16.790;2022-10-18T04:43:03;101509.30;;;15.76;78.00
28701;BME280;15877;52.344;16.790;2022-10-18T04:45:35;101506.12;;;15.77;78.18
28701;BME280;15877;52.344;16.790;2022-10-18T04:48:07;101498.93;;;15.79;78.30
28701;BME280;15877;52.344;16.790;2022-10-18T04:50:42;101504.30;;;15.83;78.35
28701;BME280;15877;52.344;16.790;2022-10-18T04:53:17;101507.24;;;15.87;78.22
28701;BME280;15877;52.344;16.790;2022-10-18T04:55:50;101507.23;;;15.91;78.56
28701;BME280;15877;52.344;16.790;2022-10-18T04:58:21;101504.05;;;15.96;78.15
28701;BME280;15877;52.344;16.790;2022-10-18T05:00:53;101506.84;;;15.96;78.21
28701;BME280;15877;52.344;16.790;2022-10-18T05:03:25;101503.23;;;15.96;78.41
28701;BME280;15877;52.344;16.790;2022-10-18T05:05:57;101501.76;;;15.99;78.73
28701;BME280;15877;52.344;16.790;2022-10-18T05:08:35;101497.52;;;15.99;78.77
28701;BME280;15877;52.344;16.790;2022-10-18T05:11:06;101495.04;;;16.04;78.85
28701;BME280;15877;52.344;16.790;2022-10-18T05:13:40;101495.40;;;16.06;78.67
28701;BME280;15877;52.344;16.790;2022-10-18T05:16:16;101496.90;;;16.10;78.84
28701;BME280;15877;52.344;16.790;2022-10-18T05:18:48;101502.33;;;16.12;78.87
28701;BME280;15877;52.344;16.790;2022-10-18T05:21:20;101506.62;;;16.16;78.90
28701;BME280;15877;52.344;16.790;2022-10-18T05:23:55;101499.58;;;16.17;78.70
28701;BME280;15877;52.344;16.790;2022-10-18T05:26:29;101502.20;;;16.21;78.85
28701;BME280;15877;52.344;16.790;2022-10-18T05:29:01;101495.73;;;16.22;78.87
28701;BME280;15877;52.344;16.790;2022-10-18T05:31:34;101494.41;;;16.24;78.62
28701;BME280;15877;52.344;16.790;2022-10-18T05:34:06;101494.54;;;16.27;78.01
28701;BME280;15877;52.344;16.790;2022-10-18T05:36:39;101495.27;;;16.28;78.19
28701;BME280;15877;52.344;16.790;2022-10-18T05:39:11;101494.33;;;16.28;78.18
28701;BME280;15877;52.344;16.790;2022-10-18T05:41:44;101491.52;;;16.29;78.59
28701;BME280;15877;52.344;16.790;2022-10-18T05:44:18;101489.22;;;16.30;78.16
28701;BME280;15877;52.344;16.790;2022-10-18T05:46:50;101490.52;;;16.31;78.93
28701;BME280;15877;52.344;16.790;2022-10-18T05:49:22;101490.28;;;16.32;78.90
28701;BME280;15877;52.344;16.790;2022-10-18T05:51:54;101487.65;;;16.33;79.06
28701;BME280;15877;52.344;16.790;2022-10-18T05:54:26;101489.05;;;16.34;79.64
28701;BME280;15877;52.344;16.790;2022-10-18T05:56:58;101471.51;;;16.30;79.98
28701;BME280;15877;52.344;16.790;2022-10-18T05:59:30;101481.84;;;16.40;79.67
28701;BME280;15877;52.344;16.790;2022-10-18T06:02:02;101488.11;;;16.46;79.49
28701;BME280;15877;52.344;16.790;2022-10-18T06:04:34;101496.13;;;16.50;79.62
28701;BME280;15877;52.344;16.790;2022-10-18T06:07:09;101500.14;;;16.51;79.47
28701;BME280;15877;52.344;16.790;2022-10-18T06:09:41;101498.30;;;16.51;79.76
28701;BME280;15877;52.344;16.790;2022-10-18T06:12:14;101503.00;;;16.54;80.06
28701;BME280;15877;52.344;16.790;2022-10-18T06:14:46;101507.70;;;16.58;80.02
28701;BME280;15877;52.344;16.790;2022-10-18T06:17:19;101504.43;;;16.59;80.29
28701;BME280;15877;52.344;16.790;2022-10-18T06:19:51;101511.94;;;16.62;80.99
28701;BME280;15877;52.344;16.790;2022-10-18T06:22:23;101517.46;;;16.68;80.78
28701;BME280;15877;52.344;16.790;2022-10-18T06:24:55;101520.02;;;16.72;80.83
28701;BME280;15877;52.344;16.790;2022-10-18T06:27:27;101520.48;;;16.76;81.12
28701;BME280;15877;52.344;16.790;2022-10-18T06:30:01;101523.11;;;16.81;80.97
28701;BME280;15877;52.344;16.790;2022-10-18T06:32:34;101529.56;;;16.90;81.04
28701;BME280;15877;52.344;16.790;2022-10-18T06:35:07;101533.30;;;16.93;81.28
28701;BME280;15877;52.344;16.790;2022-10-18T06:37:42;101532.04;;;16.94;81.56
28701;BME280;15877;52.344;16.790;2022-10-18T06:40:14;101536.08;;;16.97;81.79
28701;BME280;15877;52.344;16.790;2022-10-18T06:42:46;101539.50;;;17.00;81.98
28701;BME280;15877;52.344;16.790;2022-10-18T06:45:30;101540.30;;;17.07;81.69
28701;BME280;15877;52.344;16.790;2022-10-18T06:48:02;101541.30;;;17.03;82.47
28701;BME280;15877;52.344;16.790;2022-10-18T06:50:34;101544.30;;;17.05;82.57
28701;BME280;15877;52.344;16.790;2022-10-18T06:53:06;101549.98;;;17.11;82.83
28701;BME280;15877;52.344;16.790;2022-10-18T06:55:39;101557.16;;;17.07;83.19
28701;BME280;15877;52.344;16.790;2022-10-18T06:58:11;101559.59;;;17.10;82.96
28701;BME280;15877;52.344;16.790;2022-10-18T07:00:43;101557.28;;;17.05;83.62
28701;BME280;15877;52.344;16.790;2022-10-18T07:03:16;101558.92;;;17.07;83.44
28701;BME280;15877;52.344;16.790;2022-10-18T07:05:48;101557.66;;;17.09;83.31
28701;BME280;15877;52.344;16.790;2022-10-18T07:08:20;101554.81;;;17.12;83.75
28701;BME280;15877;52.344;16.790;2022-10-18T07:10:52;101556.75;;;17.14;83.74
28701;BME280;15877;52.344;16.790;2022-10-18T07:13:26;101554.45;;;17.15;84.11
28701;BME280;15877;52.344;16.790;2022-10-18T07:16:04;101559.73;;;17.21;84.00
28701;BME280;15877;52.344;16.790;2022-10-18T07:18:40;101560.89;;;17.30;83.80
28701;BME280;15877;52.344;16.790;2022-10-18T07:21:11;101563.98;;;17.33;84.04
28701;BME280;15877;52.344;16.790;2022-10-18T07:23:45;101566.26;;;17.35;84.28
28701;BME280;15877;52.344;16.790;2022-10-18T07:26:19;101560.97;;;17.35;83.89
28701;BME280;15877;52.344;16.790;2022-10-18T07:28:53;101563.40;;;17.44;84.09
28701;BME280;15877;52.344;16.790;2022-10-18T07:31:28;101558.94;;;17.45;84.37
28701;BME280;15877;52.344;16.790;2022-10-18T07:34:00;101558.58;;;17.48;84.41
28701;BME280;15877;52.344;16.790;2022-10-18T07:36:34;101557.09;;;17.51;84.60
28701;BME280;15877;52.344;16.790;2022-10-18T07:39:06;101557.59;;;17.53;85.04
28701;BME280;15877;52.344;16.790;2022-10-18T07:41:38;101560.45;;;17.57;84.95
28701;BME280;15877;52.344;16.790;2022-10-18T07:44:10;101556.13;;;17.58;85.28
28701;BME280;15877;52.344;16.790;2022-10-18T07:46:42;101549.20;;;17.63;85.58
28701;BME280;15877;52.344;16.790;2022-10-18T07:49:14;101548.66;;;17.66;86.00
28701;BME280;15877;52.344;16.790;2022-10-18T07:51:46;101546.77;;;17.69;86.25
28701;BME280;15877;52.344;16.790;2022-10-18T07:54:18;101536.67;;;17.71;86.44
28701;BME280;15877;52.344;16.790;2022-10-18T07:56:51;101538.64;;;17.75;86.38
28701;BME280;15877;52.344;16.790;2022-10-18T07:59:24;101536.91;;;17.78;86.90
28701;BME280;15877;52.344;16.790;2022-10-18T08:01:55;101529.72;;;17.81;86.67
28701;BME280;15877;52.344;16.790;2022-10-18T08:04:28;101528.88;;;17.86;86.77
28701;BME280;15877;52.344;16.790;2022-10-18T08:06:59;101528.58;;;17.87;86.87
28701;BME280;15877;52.344;16.790;2022-10-18T08:09:31;101525.58;;;17.92;87.02
28701;BME280;15877;52.344;16.790;2022-10-18T08:12:04;101525.83;;;17.95;86.78
28701;BME280;15877;52.344;16.790;2022-10-18T08:14:36;101527.48;;;17.98;86.77
28701;BME280;15877;52.344;16.790;2022-10-18T08:17:09;101527.92;;;18.03;86.75
28701;BME280;15877;52.344;16.790;2022-10-18T08:19:41;101522.83;;;18.09;86.92
28701;BME280;15877;52.344;16.790;2022-10-18T08:22:33;101524.56;;;18.14;87.13
28701;BME280;15877;52.344;16.790;2022-10-18T08:25:05;101507.35;;;18.12;86.27
28701;BME280;15877;52.344;16.790;2022-10-18T08:27:38;101517.64;;;18.22;86.31
28701;BME280;15877;52.344;16.790;2022-10-18T08:30:11;101520.16;;;18.26;85.88
28701;BME280;15877;52.344;16.790;2022-10-18T08:32:44;101515.38;;;18.30;85.47
28701;BME280;15877;52.344;16.790;2022-10-18T08:35:16;101516.66;;;18.31;85.51
28701;BME280;15877;52.344;16.790;2022-10-18T08:37:48;101517.89;;;18.35;85.25
28701;BME280;15877;52.344;16.790;2022-10-18T08:40:21;101518.81;;;18.39;85.45
28701;BME280;15877;52.344;16.790;2022-10-18T08:42:59;101514.83;;;18.40;85.25
28701;BME280;15877;52.344;16.790;2022-10-18T08:45:37;101512.69;;;18.43;85.26
28701;BME280;15877;52.344;16.790;2022-10-18T08:48:20;101511.16;;;18.45;85.43
28701;BME280;15877;52.344;16.790;2022-10-18T08:50:54;101514.07;;;18.46;85.59
28701;BME280;15877;52.344;16.790;2022-10-18T08:53:31;101514.03;;;18.50;85.15
28701;BME280;15877;52.344;16.790;2022-10-18T08:56:12;101507.85;;;18.53;85.05
28701;BME280;15877;52.344;16.790;2022-10-18T08:58:45;101507.55;;;18.56;85.36
28701;BME280;15877;52.344;16.790;2022-10-18T09:01:25;101503.22;;;18.59;85.14
28701;BME280;15877;52.344;16.790;2022-10-18T09:04:13;101506.92;;;18.60;85.71
28701;BME280;15877;52.344;16.790;2022-10-18T09:06:54;101500.45;;;18.64;85.13
28701;BME280;15877;52.344;16.790;2022-10-18T09:09:37;101493.66;;;18.62;85.39
28701;BME280;15877;52.344;16.790;2022-10-18T09:12:25;101501.23;;;18.61;85.44
28701;BME280;15877;52.344;16.790;2022-10-18T09:15:11;101508.12;;;18.59;85.51
28701;BME280;15877;52.344;16.790;2022-10-18T09:18:00;101507.58;;;18.61;85.24
28701;BME280;15877;52.344;16.790;2022-10-18T09:20:50;101511.61;;;18.63;85.37
28701;BME280;15877;52.344;16.790;2022-10-18T09:23:32;101510.88;;;18.62;85.49
28701;BME280;15877;52.344;16.790;2022-10-18T09:26:12;101515.95;;;18.62;85.84
28701;BME280;15877;52.344;16.790;2022-10-18T09:28:57;101524.64;;;18.63;85.30
28701;BME280;15877;52.344;16.790;2022-10-18T09:31:41;101524.95;;;18.62;85.35
28701;BME280;15877;52.344;16.790;2022-10-18T09:34:23;101521.56;;;18.60;85.40
28701;BME280;15877;52.344;16.790;2022-10-18T09:36:58;101514.22;;;18.55;86.25
28701;BME280;15877;52.344;16.790;2022-10-18T09:39:32;101514.45;;;18.54;86.02
28701;BME280;15877;52.344;16.790;2022-10-18T09:42:13;101509.46;;;18.53;86.24
28701;BME280;15877;52.344;16.790;2022-10-18T09:44:50;101497.79;;;18.52;86.34
28701;BME280;15877;52.344;16.790;2022-10-18T09:47:27;101497.47;;;18.54;86.34
28701;BME280;15877;52.344;16.790;2022-10-18T09:50:12;101494.99;;;18.54;86.78
28701;BME280;15877;52.344;16.790;2022-10-18T09:52:49;101499.02;;;18.55;87.03
28701;BME280;15877;52.344;16.790;2022-10-18T09:55:25;101493.70;;;18.54;86.99
28701;BME280;15877;52.344;16.790;2022-10-18T09:58:04;101485.67;;;18.45;87.32
28701;BME280;15877;52.344;16.790;2022-10-18T10:00:40;101501.58;;;18.53;87.68
28701;BME280;15877;52.344;16.790;2022-10-18T10:03:15;101500.13;;;18.52;87.65
28701;BME280;15877;52.344;16.790;2022-10-18T10:06:02;101498.02;;;18.51;87.69
28701;BME280;15877;52.344;16.790;2022-10-18T10:08:52;101499.26;;;18.54;87.16
28701;BME280;15877;52.344;16.790;2022-10-18T10:11:30;101502.36;;;18.51;86.81
28701;BME280;15877;52.344;16.790;2022-10-18T10:14:11;101504.33;;;18.43;87.42
28701;BME280;15877;52.344;16.790;2022-10-18T10:16:51;101502.31;;;18.45;87.61
28701;BME280;15877;52.344;16.790;2022-10-18T10:19:27;101491.80;;;18.39;87.80
28701;BME280;15877;52.344;16.790;2022-10-18T10:22:04;101493.14;;;18.36;88.18
28701;BME280;15877;52.344;16.790;2022-10-18T10:24:45;101494.25;;;18.33;89.05
28701;BME280;15877;52.344;16.790;2022-10-18T10:27:23;101492.02;;;18.36;89.03
28701;BME280;15877;52.344;16.790;2022-10-18T10:29:58;101484.23;;;18.37;88.84
28701;BME280;15877;52.344;16.790;2022-10-18T10:32:47;101483.20;;;18.38;89.24
28701;BME280;15877;52.344;16.790;2022-10-18T10:35:27;101486.70;;;18.36;89.83
28701;BME280;15877;52.344;16.790;2022-10-18T10:38:27;101492.35;;;18.36;89.45
28701;BME280;15877;52.344;16.790;2022-10-18T10:41:00;101497.02;;;18.36;89.27
28701;BME280;15877;52.344;16.790;2022-10-18T10:43:32;101486.71;;;18.34;88.56
28701;BME280;15877;52.344;16.790;2022-10-18T10:46:12;101491.33;;;18.29;89.07
28701;BME280;15877;52.344;16.790;2022-10-18T10:48:50;101467.95;;;18.17;90.33
28701;BME280;15877;52.344;16.790;2022-10-18T10:51:43;101468.19;;;18.19;91.30
28701;BME280;15877;52.344;16.790;2022-10-18T10:54:29;101457.59;;;18.20;91.49
28701;BME280;15877;52.344;16.790;2022-10-18T10:57:21;101453.65;;;18.21;91.50
28701;BME280;15877;52.344;16.790;2022-10-18T10:59:55;101456.94;;;18.20;91.98
28701;BME280;15877;52.344;16.790;2022-10-18T11:02:30;101453.81;;;18.21;92.01
28701;BME280;15877;52.344;16.790;2022-10-18T11:05:22;101447.16;;;18.22;92.03
28701;BME280;15877;52.344;16.790;2022-10-18T11:07:57;101442.26;;;18.25;92.08
28701;BME280;15877;52.344;16.790;2022-10-18T11:10:29;101439.04;;;18.22;91.73
28701;BME280;15877;52.344;16.790;2022-10-18T11:13:08;101438.96;;;18.24;91.45
28701;BME280;15877;52.344;16.790;2022-10-18T11:15:49;101434.13;;;18.21;91.26
28701;BME280;15877;52.344;16.790;2022-10-18T11:18:28;101429.22;;;18.20;90.76
28701;BME280;15877;52.344;16.790;2022-10-18T11:21:04;101419.10;;;18.21;90.02
28701;BME280;15877;52.344;16.790;2022-10-18T11:23:39;101414.64;;;18.16;89.30
28701;BME280;15877;52.344;16.790;2022-10-18T11:26:31;101405.02;;;18.16;89.25
28701;BME280;15877;52.344;16.790;2022-10-18T11:29:25;101400.73;;;18.14;89.35
28701;BME280;15877;52.344;16.790;2022-10-18T11:32:07;101396.63;;;18.13;88.29
28701;BME280;15877;52.344;16.790;2022-10-18T11:34:51;101388.94;;;18.05;88.45
28701;BME280;15877;52.344;16.790;2022-10-18T11:37:36;101390.20;;;18.01;88.45
28701;BME280;15877;52.344;16.790;2022-10-18T11:40:26;101395.45;;;17.95;88.43
28701;BME280;15877;52.344;16.790;2022-10-18T11:43:07;101395.29;;;17.95;88.49
28701;BME280;15877;52.344;16.790;2022-10-18T11:45:48;101395.61;;;17.94;88.45
28701;BME280;15877;52.344;16.790;2022-10-18T11:48:38;101397.06;;;17.95;88.36
28701;BME280;15877;52.344;16.790;2022-10-18T11:51:22;101413.69;;;17.94;87.96
28701;BME280;15877;52.344;16.790;2022-10-18T11:54:27;101439.05;;;17.91;87.53
28701;BME280;15877;52.344;16.790;2022-10-18T11:57:08;101455.36;;;17.84;86.70
28701;BME280;15877;52.344;16.790;2022-10-18T11:59:51;101444.34;;;17.81;86.89
28701;BME280;15877;52.344;16.790;2022-10-18T12:02:43;101435.70;;;17.76;86.70
28701;BME280;15877;52.344;16.790;2022-10-18T12:05:19;101437.06;;;17.75;87.03
28701;BME280;15877;52.344;16.790;2022-10-18T12:08:00;101435.76;;;17.72;87.13
28701;BME280;15877;52.344;16.790;2022-10-18T12:10:36;101426.58;;;17.71;87.31
28701;BME280;15877;52.344;16.790;2022-10-18T12:13:35;101414.11;;;17.68;87.51
28701;BME280;15877;52.344;16.790;2022-10-18T12:16:10;101411.48;;;17.69;87.67
28701;BME280;15877;52.344;16.790;2022-10-18T12:18:50;101410.27;;;17.69;87.28
28701;BME280;15877;52.344;16.790;2022-10-18T12:21:25;101410.30;;;17.65;87.11
28701;BME280;15877;52.344;16.790;2022-10-18T12:24:00;101408.78;;;17.65;86.73
28701;BME280;15877;52.344;16.790;2022-10-18T12:26:33;101392.71;;;17.64;87.05
28701;BME280;15877;52.344;16.790;2022-10-18T12:29:19;101377.52;;;17.61;87.19
28701;BME280;15877;52.344;16.790;2022-10-18T12:31:57;101370.53;;;17.61;87.51
28701;BME280;15877;52.344;16.790;2022-10-18T12:34:34;101377.35;;;17.61;87.47
28701;BME280;15877;52.344;16.790;2022-10-18T12:37:28;101396.82;;;17.65;87.46
28701;BME280;15877;52.344;16.790;2022-10-18T12:40:09;101406.98;;;17.61;87.51
28701;BME280;15877;52.344;16.790;2022-10-18T12:42:49;101400.48;;;17.61;87.23
28701;BME280;15877;52.344;16.790;2022-10-18T12:45:25;101400.47;;;17.61;87.14
28701;BME280;15877;52.344;16.790;2022-10-18T12:48:00;101410.42;;;17.60;87.05
28701;BME280;15877;52.344;16.790;2022-10-18T12:50:37;101410.77;;;17.63;86.64
28701;BME280;15877;52.344;16.790;2022-10-18T12:53:16;101408.27;;;17.61;86.41
28701;BME280;15877;52.344;16.790;2022-10-18T12:55:49;101401.77;;;17.61;86.02
28701;BME280;15877;52.344;16.790;2022-10-18T12:58:30;101400.48;;;17.62;86.06
28701;BME280;15877;52.344;16.790;2022-10-18T13:01:04;101392.91;;;17.58;86.26
28701;BME280;15877;52.344;16.790;2022-10-18T13:03:53;101401.67;;;17.59;86.90
28701;BME280;15877;52.344;16.790;2022-10-18T13:06:26;101400.64;;;17.61;86.61
28701;BME280;15877;52.344;16.790;2022-10-18T13:09:20;101394.52;;;17.59;86.59
28701;BME280;15877;52.344;16.790;2022-10-18T13:11:55;101394.09;;;17.57;87.09
28701;BME280;15877;52.344;16.790;2022-10-18T13:14:58;101395.46;;;17.57;87.19
28701;BME280;15877;52.344;16.790;2022-10-18T13:17:55;101388.08;;;17.56;87.30
28701;BME280;15877;52.344;16.790;2022-10-18T13:20:32;101392.48;;;17.56;88.02
28701;BME280;15877;52.344;16.790;2022-10-18T13:23:18;101398.70;;;17.59;87.56
28701;BME280;15877;52.344;16.790;2022-10-18T13:26:13;101401.02;;;17.59;87.33
28701;BME280;15877;52.344;16.790;2022-10-18T13:28:51;101394.49;;;17.55;87.33
28701;BME280;15877;52.344;16.790;2022-10-18T13:31:33;101380.08;;;17.50;87.92